Terminal Aerodrome Forecast
Issued by NWS Detroit/Pontiac, MI

Current Version | Previous Version | Text Only | Print | Product List | Glossary On
Versions: 1 2 3 4 5 6 7 8 9 10 11 12 13 14 15 16 17 18 19 20 21 22 23 24 25 26 27 28 29 30
000
FTUS43 KDTX 040052 AAA
TAFDTW
TAF AMD
KDTW 040052Z 0401/0506 08005KT P6SM -SHRA SCT020 BKN060
      TEMPO 0401/0402 3SM TSRA BKN035CB
     FM040300 13004KT 4SM BR SCT030 BKN040
     FM040700 14003KT 1SM BR BKN040
     FM040900 15003KT 1SM BR SCT040 BKN250
     FM041400 17007KT P6SM BKN035=

USA.gov is the U.S. government's official web portal to all federal, state and local government web resources and services.